sensor_id;sensor_type;location;lat;lon;timestamp;temperature;humidity
16511;DHT22;8368;48.772;8.754;2023-04-01T00:01:13;7.60;99.90
16511;DHT22;8368;48.772;8.754;2023-04-01T00:03:39;7.70;99.90
16511;DHT22;8368;48.772;8.754;2023-04-01T00:06:05;7.70;99.90
16511;DHT22;8368;48.772;8.754;2023-04-01T00:08:31;7.70;99.90
16511;DHT22;8368;48.772;8.754;2023-04-01T00:10:57;7.70;99.90
16511;DHT22;8368;48.772;8.754;2023-04-01T00:13:24;7.70;99.90
16511;DHT22;8368;48.772;8.754;2023-04-01T00:15:51;7.70;99.90
16511;DHT22;8368;48.772;8.754;2023-04-01T00:18:17;7.70;99.90
16511;DHT22;8368;48.772;8.754;2023-04-01T00:20:48;7.80;99.90
16511;DHT22;8368;48.772;8.754;2023-04-01T00:23:15;7.80;99.90
16511;DHT22;8368;48.772;8.754;2023-04-01T00:25:41;7.80;99.90
16511;DHT22;8368;48.772;8.754;2023-04-01T00:28:07;7.80;99.90
16511;DHT22;8368;48.772;8.754;2023-04-01T00:30:32;7.80;99.90
16511;DHT22;8368;48.772;8.754;2023-04-01T00:32:58;7.70;99.90
16511;DHT22;8368;48.772;8.754;2023-04-01T00:35:23;7.60;99.90
16511;DHT22;8368;48.772;8.754;2023-04-01T00:37:49;7.50;99.90
16511;DHT22;8368;48.772;8.754;2023-04-01T00:40:31;7.50;99.90
16511;DHT22;8368;48.772;8.754;2023-04-01T00:42:57;7.50;99.90
16511;DHT22;8368;48.772;8.754;2023-04-01T00:45:35;7.40;99.90
16511;DHT22;8368;48.772;8.754;2023-04-01T00:48:05;7.30;99.90
16511;DHT22;8368;48.772;8.754;2023-04-01T00:50:33;7.30;99.90
16511;DHT22;8368;48.772;8.754;2023-04-01T00:53:00;7.30;99.90
16511;DHT22;8368;48.772;8.754;2023-04-01T00:55:28;7.20;99.90
16511;DHT22;8368;48.772;8.754;2023-04-01T00:57:57;7.10;99.90
16511;DHT22;8368;48.772;8.754;2023-04-01T01:00:23;7.10;99.90
16511;DHT22;8368;48.772;8.754;2023-04-01T01:02:50;7.20;99.90
16511;DHT22;8368;48.772;8.754;2023-04-01T01:05:17;7.20;99.90
16511;DHT22;8368;48.772;8.754;2023-04-01T01:08:03;7.30;99.90
16511;DHT22;8368;48.772;8.754;2023-04-01T01:10:36;7.30;99.90
16511;DHT22;8368;48.772;8.754;2023-04-01T01:16:06;7.50;99.90
16511;DHT22;8368;48.772;8.754;2023-04-01T01:35:22;7.20;99.90
16511;DHT22;8368;48.772;8.754;2023-04-01T01:37:52;7.10;99.90
16511;DHT22;8368;48.772;8.754;2023-04-01T01:40:20;7.00;99.90
16511;DHT22;8368;48.772;8.754;2023-04-01T01:42:50;7.00;99.90
16511;DHT22;8368;48.772;8.754;2023-04-01T01:45:19;7.00;99.90
16511;DHT22;8368;48.772;8.754;2023-04-01T01:47:45;7.00;99.90
16511;DHT22;8368;48.772;8.754;2023-04-01T01:50:12;7.10;99.90
16511;DHT22;8368;48.772;8.754;2023-04-01T01:52:38;7.10;99.90
16511;DHT22;8368;48.772;8.754;2023-04-01T01:55:36;7.10;99.90
16511;DHT22;8368;48.772;8.754;2023-04-01T02:01:04;7.20;99.90
16511;DHT22;8368;48.772;8.754;2023-04-01T02:03:34;7.20;99.90
16511;DHT22;8368;48.772;8.754;2023-04-01T02:06:04;7.20;99.90
16511;DHT22;8368;48.772;8.754;2023-04-01T02:08:44;7.20;99.90
16511;DHT22;8368;48.772;8.754;2023-04-01T02:11:12;7.10;99.90
16511;DHT22;8368;48.772;8.754;2023-04-01T02:13:54;7.20;99.90
16511;DHT22;8368;48.772;8.754;2023-04-01T02:16:38;7.20;99.90
16511;DHT22;8368;48.772;8.754;2023-04-01T02:19:06;7.20;99.90
16511;DHT22;8368;48.772;8.754;2023-04-01T02:21:33;7.20;99.90
16511;DHT22;8368;48.772;8.754;2023-04-01T02:24:02;7.20;99.90
16511;DHT22;8368;48.772;8.754;2023-04-01T02:26:29;7.10;99.90
16511;DHT22;8368;48.772;8.754;2023-04-01T02:28:56;7.10;99.90
16511;DHT22;8368;48.772;8.754;2023-04-01T02:31:23;7.10;99.90
16511;DHT22;8368;48.772;8.754;2023-04-01T02:33:49;7.00;99.90
16511;DHT22;8368;48.772;8.754;2023-04-01T02:36:16;7.10;99.90
16511;DHT22;8368;48.772;8.754;2023-04-01T02:38:44;7.10;99.90
16511;DHT22;8368;48.772;8.754;2023-04-01T02:41:10;7.20;99.90
16511;DHT22;8368;48.772;8.754;2023-04-01T02:43:36;7.20;99.90
16511;DHT22;8368;48.772;8.754;2023-04-01T02:46:01;7.20;99.90
16511;DHT22;8368;48.772;8.754;2023-04-01T02:48:27;7.10;99.90
16511;DHT22;8368;48.772;8.754;2023-04-01T02:50:53;7.10;99.90
16511;DHT22;8368;48.772;8.754;2023-04-01T02:53:19;7.00;99.90
16511;DHT22;8368;48.772;8.754;2023-04-01T02:55:44;7.00;99.90
16511;DHT22;8368;48.772;8.754;2023-04-01T02:58:10;6.90;99.90
16511;DHT22;8368;48.772;8.754;2023-04-01T03:00:36;6.80;99.90
16511;DHT22;8368;48.772;8.754;2023-04-01T03:03:02;6.70;99.90
16511;DHT22;8368;48.772;8.754;2023-04-01T03:05:28;6.70;99.90
16511;DHT22;8368;48.772;8.754;2023-04-01T03:07:53;6.70;99.90
16511;DHT22;8368;48.772;8.754;2023-04-01T03:10:19;6.60;99.90
16511;DHT22;8368;48.772;8.754;2023-04-01T03:12:45;6.60;99.90
16511;DHT22;8368;48.772;8.754;2023-04-01T03:15:12;6.60;99.90
16511;DHT22;8368;48.772;8.754;2023-04-01T03:17:40;6.60;99.90
16511;DHT22;8368;48.772;8.754;2023-04-01T03:20:06;6.60;99.90
16511;DHT22;8368;48.772;8.754;2023-04-01T03:22:34;6.60;99.90
16511;DHT22;8368;48.772;8.754;2023-04-01T03:25:01;6.70;99.90
16511;DHT22;8368;48.772;8.754;2023-04-01T03:27:26;6.70;99.90
16511;DHT22;8368;48.772;8.754;2023-04-01T03:29:52;6.70;99.90
16511;DHT22;8368;48.772;8.754;2023-04-01T03:32:17;6.70;99.90
16511;DHT22;8368;48.772;8.754;2023-04-01T03:34:43;6.70;99.90
16511;DHT22;8368;48.772;8.754;2023-04-01T03:37:08;6.80;99.90
16511;DHT22;8368;48.772;8.754;2023-04-01T03:39:34;6.70;99.90
16511;DHT22;8368;48.772;8.754;2023-04-01T03:42:00;6.70;99.90
16511;DHT22;8368;48.772;8.754;2023-04-01T03:44:26;6.80;99.90
16511;DHT22;8368;48.772;8.754;2023-04-01T03:46:51;6.80;99.90
16511;DHT22;8368;48.772;8.754;2023-04-01T03:49:17;6.80;99.90
16511;DHT22;8368;48.772;8.754;2023-04-01T03:51:43;6.70;99.90
16511;DHT22;8368;48.772;8.754;2023-04-01T03:54:10;6.70;99.90
16511;DHT22;8368;48.772;8.754;2023-04-01T03:56:37;6.80;99.90
16511;DHT22;8368;48.772;8.754;2023-04-01T03:59:06;6.80;99.90
16511;DHT22;8368;48.772;8.754;2023-04-01T04:01:33;6.90;99.90
16511;DHT22;8368;48.772;8.754;2023-04-01T04:03:58;6.90;99.90
16511;DHT22;8368;48.772;8.754;2023-04-01T04:06:25;6.90;99.90
16511;DHT22;8368;48.772;8.754;2023-04-01T04:08:51;7.00;99.90
16511;DHT22;8368;48.772;8.754;2023-04-01T04:11:16;7.00;99.90
16511;DHT22;8368;48.772;8.754;2023-04-01T04:13:42;6.90;99.90
16511;DHT22;8368;48.772;8.754;2023-04-01T04:16:08;6.90;99.90
16511;DHT22;8368;48.772;8.754;2023-04-01T04:18:35;6.80;99.90
16511;DHT22;8368;48.772;8.754;2023-04-01T04:21:01;6.80;99.90
16511;DHT22;8368;48.772;8.754;2023-04-01T04:23:26;6.80;99.90
16511;DHT22;8368;48.772;8.754;2023-04-01T04:26:04;6.70;99.90
16511;DHT22;8368;48.772;8.754;2023-04-01T04:28:30;6.70;99.90
16511;DHT22;8368;48.772;8.754;2023-04-01T04:30:56;6.70;99.90
16511;DHT22;8368;48.772;8.754;2023-04-01T04:33:22;6.60;99.90
16511;DHT22;8368;48.772;8.754;2023-04-01T04:35:48;6.70;99.90
16511;DHT22;8368;48.772;8.754;2023-04-01T04:38:14;6.70;99.90
16511;DHT22;8368;48.772;8.754;2023-04-01T04:40:40;6.80;99.90
16511;DHT22;8368;48.772;8.754;2023-04-01T04:43:06;6.70;99.90
16511;DHT22;8368;48.772;8.754;2023-04-01T04:45:32;6.70;99.90
16511;DHT22;8368;48.772;8.754;2023-04-01T04:47:58;6.70;99.90
16511;DHT22;8368;48.772;8.754;2023-04-01T04:50:24;6.80;99.90
16511;DHT22;8368;48.772;8.754;2023-04-01T04:52:51;6.80;99.90
16511;DHT22;8368;48.772;8.754;2023-04-01T04:55:16;6.80;99.90
16511;DHT22;8368;48.772;8.754;2023-04-01T04:57:42;6.70;99.90
16511;DHT22;8368;48.772;8.754;2023-04-01T05:00:08;6.70;99.90
16511;DHT22;8368;48.772;8.754;2023-04-01T05:02:35;6.70;99.90
16511;DHT22;8368;48.772;8.754;2023-04-01T05:05:00;6.80;99.90
16511;DHT22;8368;48.772;8.754;2023-04-01T05:07:26;6.70;99.90
16511;DHT22;8368;48.772;8.754;2023-04-01T05:09:52;6.70;99.90
16511;DHT22;8368;48.772;8.754;2023-04-01T05:12:17;6.70;99.90
16511;DHT22;8368;48.772;8.754;2023-04-01T05:14:43;6.80;99.90
16511;DHT22;8368;48.772;8.754;2023-04-01T05:17:12;6.70;99.90
16511;DHT22;8368;48.772;8.754;2023-04-01T05:19:38;6.70;99.90
16511;DHT22;8368;48.772;8.754;2023-04-01T05:22:05;6.70;99.90
16511;DHT22;8368;48.772;8.754;2023-04-01T05:24:31;6.70;99.90
16511;DHT22;8368;48.772;8.754;2023-04-01T05:26:56;6.70;99.90
16511;DHT22;8368;48.772;8.754;2023-04-01T05:29:23;6.70;99.90
16511;DHT22;8368;48.772;8.754;2023-04-01T05:31:49;6.70;99.90
16511;DHT22;8368;48.772;8.754;2023-04-01T05:34:14;6.70;99.90
16511;DHT22;8368;48.772;8.754;2023-04-01T05:36:40;6.70;99.90
16511;DHT22;8368;48.772;8.754;2023-04-01T05:39:07;6.70;99.90
16511;DHT22;8368;48.772;8.754;2023-04-01T05:41:35;6.80;99.90
16511;DHT22;8368;48.772;8.754;2023-04-01T05:44:01;6.80;99.90
16511;DHT22;8368;48.772;8.754;2023-04-01T05:46:27;6.90;99.90
16511;DHT22;8368;48.772;8.754;2023-04-01T05:48:52;7.00;99.90
16511;DHT22;8368;48.772;8.754;2023-04-01T05:51:18;7.00;99.90
16511;DHT22;8368;48.772;8.754;2023-04-01T05:53:43;7.00;99.90
16511;DHT22;8368;48.772;8.754;2023-04-01T05:56:09;7.20;99.90
16511;DHT22;8368;48.772;8.754;2023-04-01T05:58:35;7.20;99.90
16511;DHT22;8368;48.772;8.754;2023-04-01T06:01:03;7.20;99.90
16511;DHT22;8368;48.772;8.754;2023-04-01T06:03:29;7.20;99.90
16511;DHT22;8368;48.772;8.754;2023-04-01T06:05:54;7.20;99.90
16511;DHT22;8368;48.772;8.754;2023-04-01T06:08:20;7.10;99.90
16511;DHT22;8368;48.772;8.754;2023-04-01T06:11:51;7.10;99.90
16511;DHT22;8368;48.772;8.754;2023-04-01T06:13:58;7.00;99.90
16511;DHT22;8368;48.772;8.754;2023-04-01T06:16:35;7.10;99.90
16511;DHT22;8368;48.772;8.754;2023-04-01T06:24:43;7.00;99.90
16511;DHT22;8368;48.772;8.754;2023-04-01T06:28:07;7.00;99.90
16511;DHT22;8368;48.772;8.754;2023-04-01T06:30:18;6.90;99.90
16511;DHT22;8368;48.772;8.754;2023-04-01T06:35:49;6.90;99.90
16511;DHT22;8368;48.772;8.754;2023-04-01T06:44:12;6.90;99.90
16511;DHT22;8368;48.772;8.754;2023-04-01T06:46:51;6.90;99.90
16511;DHT22;8368;48.772;8.754;2023-04-01T06:52:22;6.80;99.90
16511;DHT22;8368;48.772;8.754;2023-04-01T06:57:49;6.80;99.90
16511;DHT22;8368;48.772;8.754;2023-04-01T07:00:34;6.90;99.90
16511;DHT22;8368;48.772;8.754;2023-04-01T07:05:31;6.90;99.90
16511;DHT22;8368;48.772;8.754;2023-04-01T07:08:00;6.90;99.90
16511;DHT22;8368;48.772;8.754;2023-04-01T07:10:47;6.80;99.90
16511;DHT22;8368;48.772;8.754;2023-04-01T07:13:27;6.80;99.90
16511;DHT22;8368;48.772;8.754;2023-04-01T07:21:50;6.90;99.90
16511;DHT22;8368;48.772;8.754;2023-04-01T07:24:26;6.90;99.90
16511;DHT22;8368;48.772;8.754;2023-04-01T07:26:56;7.00;99.90
16511;DHT22;8368;48.772;8.754;2023-04-01T07:29:22;7.00;99.90
16511;DHT22;8368;48.772;8.754;2023-04-01T07:34:26;7.10;99.90
16511;DHT22;8368;48.772;8.754;2023-04-01T07:37:12;7.10;99.90
16511;DHT22;8368;48.772;8.754;2023-04-01T07:39:43;7.10;99.90
16511;DHT22;8368;48.772;8.754;2023-04-01T07:47:57;7.30;99.90
16511;DHT22;8368;48.772;8.754;2023-04-01T07:50:28;7.30;99.90
16511;DHT22;8368;48.772;8.754;2023-04-01T07:55:35;7.40;99.90
16511;DHT22;8368;48.772;8.754;2023-04-01T07:58:08;7.40;99.90
16511;DHT22;8368;48.772;8.754;2023-04-01T08:00:55;7.40;99.90
16511;DHT22;8368;48.772;8.754;2023-04-01T08:06:16;7.30;99.90
16511;DHT22;8368;48.772;8.754;2023-04-01T08:12:02;7.30;99.90
16511;DHT22;8368;48.772;8.754;2023-04-01T08:17:22;7.40;99.90
16511;DHT22;8368;48.772;8.754;2023-04-01T08:23:19;7.40;99.90
16511;DHT22;8368;48.772;8.754;2023-04-01T08:26:36;7.30;99.90
16511;DHT22;8368;48.772;8.754;2023-04-01T08:29:00;7.30;99.90
16511;DHT22;8368;48.772;8.754;2023-04-01T08:34:17;7.20;99.90
16511;DHT22;8368;48.772;8.754;2023-04-01T08:36:51;7.20;99.90
16511;DHT22;8368;48.772;8.754;2023-04-01T08:39:21;7.30;99.90
16511;DHT22;8368;48.772;8.754;2023-04-01T08:42:03;7.40;99.90
16511;DHT22;8368;48.772;8.754;2023-04-01T08:47:20;7.40;99.90
16511;DHT22;8368;48.772;8.754;2023-04-01T08:49:56;7.50;99.90
16511;DHT22;8368;48.772;8.754;2023-04-01T08:52:32;7.50;99.90
16511;DHT22;8368;48.772;8.754;2023-04-01T09:00:52;7.70;99.90
16511;DHT22;8368;48.772;8.754;2023-04-01T09:09:02;8.00;99.90
16511;DHT22;8368;48.772;8.754;2023-04-01T09:12:06;8.00;99.90
16511;DHT22;8368;48.772;8.754;2023-04-01T09:23:55;7.80;99.90
16511;DHT22;8368;48.772;8.754;2023-04-01T09:26:35;7.90;99.90
16511;DHT22;8368;48.772;8.754;2023-04-01T09:29:34;7.90;99.90
16511;DHT22;8368;48.772;8.754;2023-04-01T09:32:16;7.80;99.90
16511;DHT22;8368;48.772;8.754;2023-04-01T09:40:00;7.80;99.90
16511;DHT22;8368;48.772;8.754;2023-04-01T09:45:41;7.90;99.90
16511;DHT22;8368;48.772;8.754;2023-04-01T09:51:27;8.00;99.90
16511;DHT22;8368;48.772;8.754;2023-04-01T10:00:33;8.10;99.90
16511;DHT22;8368;48.772;8.754;2023-04-01T10:17:27;8.70;99.90
16511;DHT22;8368;48.772;8.754;2023-04-01T10:50:51;9.10;99.90
16511;DHT22;8368;48.772;8.754;2023-04-01T10:53:38;9.20;99.90
16511;DHT22;8368;48.772;8.754;2023-04-01T11:10:25;9.20;99.90
16511;DHT22;8368;48.772;8.754;2023-04-01T11:30:14;9.30;99.90
16511;DHT22;8368;48.772;8.754;2023-04-01T11:32:59;9.40;99.90
16511;DHT22;8368;48.772;8.754;2023-04-01T11:35:52;9.40;99.90
16511;DHT22;8368;48.772;8.754;2023-04-01T11:43:48;9.30;99.90
16511;DHT22;8368;48.772;8.754;2023-04-01T11:46:16;9.40;99.90
16511;DHT22;8368;48.772;8.754;2023-04-01T12:00:32;9.20;99.90
16511;DHT22;8368;48.772;8.754;2023-04-01T12:03:42;9.30;99.90
16511;DHT22;8368;48.772;8.754;2023-04-01T12:14:57;9.40;99.90
16511;DHT22;8368;48.772;8.754;2023-04-01T12:26:05;10.00;99.90
16511;DHT22;8368;48.772;8.754;2023-04-01T12:34:28;9.90;99.90
16511;DHT22;8368;48.772;8.754;2023-04-01T12:37:06;10.00;99.90
16511;DHT22;8368;48.772;8.754;2023-04-01T12:40:06;10.10;99.90
16511;DHT22;8368;48.772;8.754;2023-04-01T12:46:03;9.70;99.90
16511;DHT22;8368;48.772;8.754;2023-04-01T12:51:23;9.20;99.90
16511;DHT22;8368;48.772;8.754;2023-04-01T12:54:08;9.10;99.90
16511;DHT22;8368;48.772;8.754;2023-04-01T12:59:27;8.90;99.90
16511;DHT22;8368;48.772;8.754;2023-04-01T13:02:27;8.80;99.90
16511;DHT22;8368;48.772;8.754;2023-04-01T13:08:02;8.80;99.90
16511;DHT22;8368;48.772;8.754;2023-04-01T13:10:53;8.70;99.90
16511;DHT22;8368;48.772;8.754;2023-04-01T13:16:10;8.80;99.90
16511;DHT22;8368;48.772;8.754;2023-04-01T13:18:57;8.80;99.90
16511;DHT22;8368;48.772;8.754;2023-04-01T13:25:10;9.00;99.90
16511;DHT22;8368;48.772;8.754;2023-04-01T13:27:40;9.00;99.90
16511;DHT22;8368;48.772;8.754;2023-04-01T13:33:14;9.00;99.90
16511;DHT22;8368;48.772;8.754;2023-04-01T13:35:58;9.00;99.90
16511;DHT22;8368;48.772;8.754;2023-04-01T13:49:46;8.70;99.90
16511;DHT22;8368;48.772;8.754;2023-04-01T13:55:27;8.40;99.90
16511;DHT22;8368;48.772;8.754;2023-04-01T14:09:16;8.40;99.90
16511;DHT22;8368;48.772;8.754;2023-04-01T14:20:37;8.60;99.90
16511;DHT22;8368;48.772;8.754;2023-04-01T14:23:30;8.70;99.90
16511;DHT22;8368;48.772;8.754;2023-04-01T14:26:04;8.80;99.90
16511;DHT22;8368;48.772;8.754;2023-04-01T14:36:52;9.00;99.90
16511;DHT22;8368;48.772;8.754;2023-04-01T14:45:19;8.90;99.90
16511;DHT22;8368;48.772;8.754;2023-04-01T14:47:56;8.90;99.90
16511;DHT22;8368;48.772;8.754;2023-04-01T14:50:27;8.90;99.90
16511;DHT22;8368;48.772;8.754;2023-04-01T14:53:11;8.80;99.90
16511;DHT22;8368;48.772;8.754;2023-04-01T14:58:10;8.80;99.90
16511;DHT22;8368;48.772;8.754;2023-04-01T15:03:30;8.70;99.90
16511;DHT22;8368;48.772;8.754;2023-04-01T15:14:30;8.70;99.90
16511;DHT22;8368;48.772;8.754;2023-04-01T15:23:02;8.80;99.90
16511;DHT22;8368;48.772;8.754;2023-04-01T15:25:41;8.70;99.90
16511;DHT22;8368;48.772;8.754;2023-04-01T15:28:27;8.80;99.90
16511;DHT22;8368;48.772;8.754;2023-04-01T15:31:26;8.90;99.90
16511;DHT22;8368;48.772;8.754;2023-04-01T15:36:44;8.80;99.90
16511;DHT22;8368;48.772;8.754;2023-04-01T15:42:14;8.70;99.90
16511;DHT22;8368;48.772;8.754;2023-04-01T15:44:55;8.70;99.90
16511;DHT22;8368;48.772;8.754;2023-04-01T15:47:28;8.60;99.90
16511;DHT22;8368;48.772;8.754;2023-04-01T16:11:57;8.30;99.90
16511;DHT22;8368;48.772;8.754;2023-04-01T16:25:33;8.40;99.90
16511;DHT22;8368;48.772;8.754;2023-04-01T16:28:18;8.50;99.90
16511;DHT22;8368;48.772;8.754;2023-04-01T16:31:06;8.50;99.90
16511;DHT22;8368;48.772;8.754;2023-04-01T16:33:57;8.50;99.90
16511;DHT22;8368;48.772;8.754;2023-04-01T16:41:52;8.60;99.90
16511;DHT22;8368;48.772;8.754;2023-04-01T16:44:25;8.60;99.90
16511;DHT22;8368;48.772;8.754;2023-04-01T16:46:57;8.60;99.90
16511;DHT22;8368;48.772;8.754;2023-04-01T16:49:39;8.50;99.90
16511;DHT22;8368;48.772;8.754;2023-04-01T16:57:42;8.40;99.90
16511;DHT22;8368;48.772;8.754;2023-04-01T17:03:16;8.30;99.90
16511;DHT22;8368;48.772;8.754;2023-04-01T17:05:56;8.40;99.90
16511;DHT22;8368;48.772;8.754;2023-04-01T17:08:30;8.40;99.90
16511;DHT22;8368;48.772;8.754;2023-04-01T17:11:16;8.30;99.90
16511;DHT22;8368;48.772;8.754;2023-04-01T17:16:38;8.20;99.90
16511;DHT22;8368;48.772;8.754;2023-04-01T17:22:25;8.10;99.90
16511;DHT22;8368;48.772;8.754;2023-04-01T17:25:28;8.10;99.90
16511;DHT22;8368;48.772;8.754;2023-04-01T17:28:12;8.10;99.90
16511;DHT22;8368;48.772;8.754;2023-04-01T17:33:45;8.00;99.90
16511;DHT22;8368;48.772;8.754;2023-04-01T17:39:27;7.90;99.90
16511;DHT22;8368;48.772;8.754;2023-04-01T17:42:06;7.90;99.90
16511;DHT22;8368;48.772;8.754;2023-04-01T17:44:57;7.80;99.90
16511;DHT22;8368;48.772;8.754;2023-04-01T17:51:02;7.70;99.90
16511;DHT22;8368;48.772;8.754;2023-04-01T17:53:35;7.60;99.90
16511;DHT22;8368;48.772;8.754;2023-04-01T17:56:36;7.50;99.90
16511;DHT22;8368;48.772;8.754;2023-04-01T17:59:21;7.40;99.90
16511;DHT22;8368;48.772;8.754;2023-04-01T18:07:30;7.20;99.90
16511;DHT22;8368;48.772;8.754;2023-04-01T18:10:21;7.10;99.90
16511;DHT22;8368;48.772;8.754;2023-04-01T18:15:38;6.90;99.90
16511;DHT22;8368;48.772;8.754;2023-04-01T18:21:05;6.70;99.90
16511;DHT22;8368;48.772;8.754;2023-04-01T18:24:14;6.70;99.90
16511;DHT22;8368;48.772;8.754;2023-04-01T18:26:46;6.60;99.90
16511;DHT22;8368;48.772;8.754;2023-04-01T18:29:26;6.60;99.90
16511;DHT22;8368;48.772;8.754;2023-04-01T18:37:30;6.60;99.90
16511;DHT22;8368;48.772;8.754;2023-04-01T18:40:22;6.60;99.90
16511;DHT22;8368;48.772;8.754;2023-04-01T18:45:57;6.60;99.90
16511;DHT22;8368;48.772;8.754;2023-04-01T18:51:01;6.60;99.90
16511;DHT22;8368;48.772;8.754;2023-04-01T18:56:06;6.50;99.90
16511;DHT22;8368;48.772;8.754;2023-04-01T18:58:43;6.50;99.90
16511;DHT22;8368;48.772;8.754;2023-04-01T19:04:28;6.60;99.90
16511;DHT22;8368;48.772;8.754;2023-04-01T19:06:58;6.60;99.90
16511;DHT22;8368;48.772;8.754;2023-04-01T19:09:32;6.70;99.90
16511;DHT22;8368;48.772;8.754;2023-04-01T19:12:14;6.70;99.90
16511;DHT22;8368;48.772;8.754;2023-04-01T19:14:52;6.70;99.90
16511;DHT22;8368;48.772;8.754;2023-04-01T19:17:48;6.70;99.90
16511;DHT22;8368;48.772;8.754;2023-04-01T19:20:41;6.70;99.90
16511;DHT22;8368;48.772;8.754;2023-04-01T19:26:05;6.60;99.90
16511;DHT22;8368;48.772;8.754;2023-04-01T19:29:02;6.60;99.90
16511;DHT22;8368;48.772;8.754;2023-04-01T19:31:37;6.60;99.90
16511;DHT22;8368;48.772;8.754;2023-04-01T19:36:49;6.60;99.90
16511;DHT22;8368;48.772;8.754;2023-04-01T19:52:37;6.70;99.90
16511;DHT22;8368;48.772;8.754;2023-04-01T19:57:54;6.70;99.90
16511;DHT22;8368;48.772;8.754;2023-04-01T20:12:03;6.70;99.90
16511;DHT22;8368;48.772;8.754;2023-04-01T20:14:46;6.70;99.90
16511;DHT22;8368;48.772;8.754;2023-04-01T20:25:23;6.80;99.90
16511;DHT22;8368;48.772;8.754;2023-04-01T20:30:34;6.80;99.90
16511;DHT22;8368;48.772;8.754;2023-04-01T20:41:31;6.60;99.90
16511;DHT22;8368;48.772;8.754;2023-04-01T20:44:20;6.60;99.90
16511;DHT22;8368;48.772;8.754;2023-04-01T20:49:39;6.50;99.90
16511;DHT22;8368;48.772;8.754;2023-04-01T20:52:41;6.60;99.90
16511;DHT22;8368;48.772;8.754;2023-04-01T20:55:16;6.50;99.90
16511;DHT22;8368;48.772;8.754;2023-04-01T21:19:21;6.20;99.90
16511;DHT22;8368;48.772;8.754;2023-04-01T21:25:20;6.20;99.90
16511;DHT22;8368;48.772;8.754;2023-04-01T21:33:48;6.10;99.90
16511;DHT22;8368;48.772;8.754;2023-04-01T21:39:08;6.20;99.90
16511;DHT22;8368;48.772;8.754;2023-04-01T21:41:49;6.20;99.90
16511;DHT22;8368;48.772;8.754;2023-04-01T22:08:42;6.50;99.90
16511;DHT22;8368;48.772;8.754;2023-04-01T22:15:16;6.60;99.90
16511;DHT22;8368;48.772;8.754;2023-04-01T22:17:53;6.60;99.90
16511;DHT22;8368;48.772;8.754;2023-04-01T22:20:25;6.60;99.90
16511;DHT22;8368;48.772;8.754;2023-04-01T22:22:59;6.50;99.90
16511;DHT22;8368;48.772;8.754;2023-04-01T22:25:40;6.50;99.90
16511;DHT22;8368;48.772;8.754;2023-04-01T22:28:21;6.40;99.90
16511;DHT22;8368;48.772;8.754;2023-04-01T22:31:00;6.30;99.90
16511;DHT22;8368;48.772;8.754;2023-04-01T22:41:40;6.00;99.90
16511;DHT22;8368;48.772;8.754;2023-04-01T22:44:30;6.00;99.90
16511;DHT22;8368;48.772;8.754;2023-04-01T22:47:08;6.00;99.90
16511;DHT22;8368;48.772;8.754;2023-04-01T22:50:10;6.00;99.90
16511;DHT22;8368;48.772;8.754;2023-04-01T22:52:43;5.90;99.90
16511;DHT22;8368;48.772;8.754;2023-04-01T22:55:28;5.90;99.90
16511;DHT22;8368;48.772;8.754;2023-04-01T22:58:02;5.80;99.90
16511;DHT22;8368;48.772;8.754;2023-04-01T23:00:45;5.80;99.90
16511;DHT22;8368;48.772;8.754;2023-04-01T23:03:21;5.80;99.90
16511;DHT22;8368;48.772;8.754;2023-04-01T23:05:53;5.80;99.90
16511;DHT22;8368;48.772;8.754;2023-04-01T23:11:05;5.80;99.90
16511;DHT22;8368;48.772;8.754;2023-04-01T23:13:36;5.80;99.90
16511;DHT22;8368;48.772;8.754;2023-04-01T23:16:06;5.80;99.90
16511;DHT22;8368;48.772;8.754;2023-04-01T23:18:44;5.80;99.90
16511;DHT22;8368;48.772;8.754;2023-04-01T23:21:24;5.80;99.90
16511;DHT22;8368;48.772;8.754;2023-04-01T23:24:25;5.90;99.90
16511;DHT22;8368;48.772;8.754;2023-04-01T23:29:23;5.90;99.90
16511;DHT22;8368;48.772;8.754;2023-04-01T23:31:59;5.90;99.90
16511;DHT22;8368;48.772;8.754;2023-04-01T23:34:28;5.90;99.90
16511;DHT22;8368;48.772;8.754;2023-04-01T23:37:04;5.90;99.90
16511;DHT22;8368;48.772;8.754;2023-04-01T23:39:41;6.00;99.90
16511;DHT22;8368;48.772;8.754;2023-04-01T23:45:02;6.10;99.90
16511;DHT22;8368;48.772;8.754;2023-04-01T23:47:37;6.10;99.90
16511;DHT22;8368;48.772;8.754;2023-04-01T23:50:16;6.10;99.90
16511;DHT22;8368;48.772;8.754;2023-04-01T23:52:47;6.20;99.90
16511;DHT22;8368;48.772;8.754;2023-04-01T23:57:39;6.20;99.90
